Terminal Aerodrome Forecast
Issued by NWS

Home | Current Version | Previous Version | Text Only | Print | Product List | Glossary On
Versions: 1 2 3 4 5 6 7 8 9 10 11 12 13 14 15 16 17 18 19 20 21 22 23 24
000
FTUS44 KTSA 250520
TAFFYV
TAF
KFYV 250520Z 2506/2606 25004KT P6SM VCSH BKN021 OVC035
      TEMPO 2508/2512 5SM -SHRA BR OVC007
     FM251200 36006KT 4SM -SHRA BR OVC007
     FM251800 32010KT P6SM OVC015
     FM252200 32010KT P6SM BKN050
     FM260200 32012KT P6SM BKN250=

USA.gov is the U.S. government's official web portal to all federal, state and local government web resources and services.